Time;durP1;ratioP1;P1;durP2;ratioP2;P2;SDS_P1;SDS_P2;PMS_P1;PMS_P2;Temp;Humidity;BMP_temperature;BMP_pressure;BME280_temperature;BME280_humidity;BME280_pressure;Samples;Min_cycle;Max_cycle;Signal;HPM_P1;HPM_P2
2020/12/12 00:01:32;;;;;;;1.40;0.50;;;5.00;65.40;;;;;;5018009;28;20757;-80
2020/12/12 00:03:58;;;;;;;1.60;0.80;;;4.90;65.60;;;;;;5019359;28;20034;-81
2020/12/12 00:06:23;;;;;;;1.70;0.60;;;4.90;65.60;;;;;;5023185;28;20361;-80
2020/12/12 00:08:49;;;;;;;2.30;0.50;;;4.90;65.80;;;;;;5024018;28;20064;-80
2020/12/12 00:11:15;;;;;;;1.80;0.80;;;5.00;65.60;;;;;;5021637;28;20472;-80
2020/12/12 00:13:40;;;;;;;2.73;0.90;;;5.10;65.60;;;;;;5025181;28;20444;-80
2020/12/12 00:16:06;;;;;;;1.43;0.70;;;5.00;65.20;;;;;;5022908;28;20026;-80
2020/12/12 00:18:33;;;;;;;1.10;0.60;;;5.00;65.50;;;;;;5026808;28;20045;-79
2020/12/12 00:20:59;;;;;;;3.07;0.93;;;5.00;65.30;;;;;;5020122;28;20815;-81
2020/12/12 00:23:24;;;;;;;5.67;1.07;;;5.10;65.30;;;;;;5017162;28;20033;-80
2020/12/12 00:25:51;;;;;;;3.37;1.50;;;5.00;65.30;;;;;;5026437;28;20531;-80
2020/12/12 00:28:17;;;;;;;2.33;1.40;;;5.10;65.20;;;;;;5022828;28;20037;-80
2020/12/12 00:30:43;;;;;;;3.00;1.77;;;5.10;65.40;;;;;;5022450;28;20029;-80
2020/12/12 00:33:09;;;;;;;3.60;1.20;;;5.20;65.00;;;;;;5032016;28;20168;-80
2020/12/12 00:35:35;;;;;;;4.03;1.40;;;5.20;64.90;;;;;;5021785;28;20034;-80
2020/12/12 00:38:00;;;;;;;2.53;1.33;;;5.10;64.70;;;;;;5024465;28;20041;-80
2020/12/12 00:40:26;;;;;;;1.53;0.90;;;5.10;65.20;;;;;;5032028;28;20108;-80
2020/12/12 00:42:52;;;;;;;2.13;1.27;;;5.10;65.00;;;;;;5024143;28;20381;-81
2020/12/12 00:45:17;;;;;;;3.07;1.57;;;5.20;65.40;;;;;;5024284;28;20061;-81
2020/12/12 00:47:43;;;;;;;1.77;0.97;;;5.20;65.10;;;;;;5014366;28;20121;-80
2020/12/12 00:50:09;;;;;;;2.93;1.13;;;5.10;65.10;;;;;;5028283;28;20476;-80
2020/12/12 00:52:34;;;;;;;2.67;0.83;;;5.00;65.60;;;;;;5030887;28;20131;-80
2020/12/12 00:55:00;;;;;;;1.73;0.87;;;4.90;65.60;;;;;;5024723;28;20040;-80
2020/12/12 00:57:25;;;;;;;1.37;0.70;;;5.00;66.20;;;;;;5030956;28;20435;-81
2020/12/12 00:59:51;;;;;;;1.83;1.03;;;5.00;66.30;;;;;;5017950;28;20029;-81
2020/12/12 01:02:17;;;;;;;3.57;1.37;;;5.10;66.20;;;;;;5027106;28;20053;-80
2020/12/12 01:04:42;;;;;;;4.37;1.03;;;5.10;66.00;;;;;;5024835;28;20072;-80
2020/12/12 01:07:08;;;;;;;2.00;1.03;;;5.10;65.70;;;;;;5031215;28;20041;-80
2020/12/12 01:09:34;;;;;;;2.83;0.63;;;5.20;65.60;;;;;;5021443;28;20076;-81
2020/12/12 01:12:00;;;;;;;1.37;0.60;;;5.20;65.60;;;;;;5022835;28;20381;-81
2020/12/12 01:14:25;;;;;;;1.80;0.90;;;5.30;66.20;;;;;;5026482;28;20080;-81
2020/12/12 01:16:51;;;;;;;2.40;1.00;;;5.40;65.90;;;;;;5033706;28;20079;-81
2020/12/12 01:19:17;;;;;;;2.13;0.83;;;5.30;65.70;;;;;;5022289;28;20034;-81
2020/12/12 01:21:42;;;;;;;2.37;1.23;;;5.30;65.70;;;;;;5029727;28;20059;-81
2020/12/12 01:24:08;;;;;;;1.63;0.90;;;5.30;65.80;;;;;;5024256;28;20033;-82
2020/12/12 01:26:34;;;;;;;3.07;0.80;;;5.30;65.80;;;;;;5023283;28;20030;-81
2020/12/12 01:29:00;;;;;;;2.03;1.00;;;5.40;65.80;;;;;;5025375;28;20538;-82
2020/12/12 01:31:26;;;;;;;1.60;1.00;;;5.40;65.80;;;;;;5030551;28;20586;-81
2020/12/12 01:33:52;;;;;;;1.00;0.60;;;5.40;65.80;;;;;;5023701;28;20040;-81
2020/12/12 01:36:18;;;;;;;2.13;1.23;;;5.30;65.70;;;;;;5019401;28;20514;-81
2020/12/12 01:38:44;;;;;;;1.67;0.90;;;5.30;66.10;;;;;;5021313;28;20029;-81
2020/12/12 01:41:10;;;;;;;2.23;1.00;;;5.30;66.30;;;;;;5029322;28;20033;-81
2020/12/12 01:43:35;;;;;;;1.63;0.73;;;5.40;66.40;;;;;;5020675;28;20050;-81
2020/12/12 01:46:01;;;;;;;1.60;0.80;;;5.40;66.30;;;;;;5026515;28;20041;-81
2020/12/12 01:48:27;;;;;;;1.00;0.53;;;5.40;66.40;;;;;;5021128;28;20034;-81
2020/12/12 01:50:53;;;;;;;4.67;1.30;;;5.30;66.10;;;;;;5030136;28;20055;-81
2020/12/12 01:53:19;;;;;;;1.73;0.80;;;5.30;66.40;;;;;;5023105;28;20037;-81
2020/12/12 01:55:49;;;;;;;1.00;0.60;;;5.30;66.40;;;;;;5024495;28;20032;-81
2020/12/12 01:58:15;;;;;;;1.23;0.70;;;5.20;66.70;;;;;;5024706;28;20080;-81
2020/12/12 02:00:42;;;;;;;1.20;0.60;;;5.30;66.90;;;;;;5027294;28;20620;-81
2020/12/12 02:03:10;;;;;;;1.43;1.00;;;5.30;66.80;;;;;;5022821;28;20037;-81
2020/12/12 02:05:40;;;;;;;2.30;1.40;;;5.30;67.10;;;;;;5018772;28;20480;-81
2020/12/12 02:08:12;;;;;;;2.23;1.03;;;5.20;66.90;;;;;;5030071;28;20791;-81
2020/12/12 02:10:43;;;;;;;3.20;1.35;;;5.20;67.10;;;;;;5028541;28;20541;-81
2020/12/12 02:13:10;;;;;;;3.10;1.10;;;5.30;66.90;;;;;;5020212;28;20048;-81
2020/12/12 02:15:37;;;;;;;3.10;1.40;;;5.20;66.70;;;;;;5029773;28;20377;-81
2020/12/12 02:18:05;;;;;;;2.03;1.00;;;5.40;66.70;;;;;;5023898;28;20371;-81
2020/12/12 02:20:30;;;;;;;2.43;1.40;;;5.40;66.50;;;;;;5019697;28;20032;-81
2020/12/12 02:22:57;;;;;;;2.10;1.20;;;5.40;65.80;;;;;;5015628;28;20121;-81
2020/12/12 02:25:23;;;;;;;1.93;1.10;;;5.40;66.00;;;;;;5022675;28;20558;-81
2020/12/12 02:27:55;;;;;;;1.87;1.10;;;5.40;65.90;;;;;;5027141;28;20030;-81
2020/12/12 02:30:21;;;;;;;2.28;1.60;;;5.60;66.10;;;;;;5027878;28;20021;-80
2020/12/12 02:32:46;;;;;;;6.27;1.20;;;5.70;65.70;;;;;;5031685;28;20031;-81
2020/12/12 02:35:13;;;;;;;4.53;1.30;;;5.60;65.40;;;;;;5014166;28;20531;-80
2020/12/12 02:37:39;;;;;;;2.67;1.47;;;5.80;65.40;;;;;;5023125;28;20117;-80
2020/12/12 02:40:05;;;;;;;2.70;1.50;;;5.90;65.40;;;;;;5031012;28;20116;-80
2020/12/12 02:42:31;;;;;;;3.60;1.80;;;6.00;65.10;;;;;;5029392;28;21129;-80
2020/12/12 02:44:56;;;;;;;4.00;1.83;;;6.00;64.70;;;;;;5028182;28;20029;-80
2020/12/12 02:47:23;;;;;;;2.83;1.50;;;6.00;64.50;;;;;;5021129;28;20049;-80
2020/12/12 02:50:24;;;;;;;2.60;1.53;;;6.00;64.30;;;;;;5021421;28;20639;-81
2020/12/12 02:52:50;;;;;;;2.77;1.60;;;6.10;64.60;;;;;;5020912;28;20055;-81
2020/12/12 02:55:16;;;;;;;18.73;8.93;;;6.10;64.30;;;;;;5027282;28;20021;-81
2020/12/12 02:57:42;;;;;;;3.07;1.33;;;6.10;64.30;;;;;;5018249;28;20022;-81
2020/12/12 03:00:12;;;;;;;2.00;1.23;;;6.00;64.10;;;;;;5028293;28;20991;-81
2020/12/12 03:02:38;;;;;;;2.47;1.23;;;5.80;64.50;;;;;;5018778;28;20067;-81
2020/12/12 03:05:05;;;;;;;3.57;1.97;;;5.70;65.00;;;;;;5025807;28;20053;-80
2020/12/12 03:07:32;;;;;;;2.33;1.57;;;5.60;65.10;;;;;;5017652;28;20033;-81
2020/12/12 03:09:58;;;;;;;2.67;0.90;;;5.60;65.30;;;;;;5033779;28;20045;-81
2020/12/12 03:12:23;;;;;;;1.80;1.10;;;5.80;65.70;;;;;;5015451;28;20030;-80
2020/12/12 03:14:49;;;;;;;2.57;1.67;;;5.80;64.80;;;;;;5022585;28;20025;-80
2020/12/12 03:17:14;;;;;;;3.83;2.10;;;5.70;64.50;;;;;;5018050;28;20504;-80
2020/12/12 03:19:40;;;;;;;3.70;2.07;;;5.80;64.80;;;;;;5019747;28;20601;-80
2020/12/12 03:22:06;;;;;;;2.80;1.53;;;5.80;64.20;;;;;;5022687;28;20022;-80
2020/12/12 03:24:33;;;;;;;4.37;1.80;;;5.80;64.20;;;;;;5023019;28;20472;-81
2020/12/12 03:26:59;;;;;;;2.50;1.60;;;5.80;64.20;;;;;;5028973;28;20391;-81
2020/12/12 03:29:25;;;;;;;2.47;1.53;;;5.70;63.80;;;;;;5025294;28;20038;-82
2020/12/12 03:31:51;;;;;;;5.67;1.90;;;5.70;64.10;;;;;;5022194;28;20132;-80
2020/12/12 03:34:17;;;;;;;3.07;1.70;;;5.70;64.30;;;;;;5026670;28;20052;-81
2020/12/12 03:36:43;;;;;;;6.67;2.00;;;5.70;64.10;;;;;;5027640;28;20026;-80
2020/12/12 03:39:08;;;;;;;3.53;2.00;;;5.80;64.00;;;;;;5019393;28;20114;-80
2020/12/12 03:41:34;;;;;;;2.17;1.47;;;5.90;64.30;;;;;;5022953;28;20492;-81
2020/12/12 03:44:00;;;;;;;3.70;1.67;;;5.90;63.80;;;;;;5016288;28;20033;-80
2020/12/12 03:46:25;;;;;;;3.03;1.73;;;5.70;63.40;;;;;;5021587;28;20021;-80
2020/12/12 03:48:51;;;;;;;3.43;1.80;;;5.60;64.20;;;;;;5018882;28;20029;-80
2020/12/12 03:51:17;;;;;;;1.70;1.07;;;5.40;64.00;;;;;;5016821;28;20029;-81
2020/12/12 03:53:43;;;;;;;3.17;1.77;;;5.50;65.40;;;;;;5017980;28;20033;-80
2020/12/12 03:56:08;;;;;;;2.37;1.13;;;5.20;65.00;;;;;;5023462;28;20357;-80
2020/12/12 03:58:34;;;;;;;2.57;1.43;;;5.00;65.90;;;;;;5028958;28;20025;-81
2020/12/12 04:01:00;;;;;;;2.13;1.30;;;5.00;66.40;;;;;;5027007;28;20258;-81
2020/12/12 04:03:25;;;;;;;1.83;1.20;;;5.30;66.70;;;;;;5025261;28;20022;-81
2020/12/12 04:05:51;;;;;;;2.67;0.90;;;5.30;66.30;;;;;;5026326;28;20388;-80
2020/12/12 04:08:17;;;;;;;1.87;0.90;;;5.50;66.10;;;;;;5032355;28;20067;-80
2020/12/12 04:10:42;;;;;;;0.80;0.70;;;5.50;66.10;;;;;;5026896;28;20480;-80
2020/12/12 04:13:08;;;;;;;1.10;0.80;;;5.50;65.80;;;;;;5032420;28;20033;-80
2020/12/12 04:15:34;;;;;;;2.93;1.70;;;5.50;66.20;;;;;;5028360;28;20025;-80
2020/12/12 04:17:59;;;;;;;2.40;1.13;;;5.40;65.50;;;;;;5031083;28;20029;-81
2020/12/12 04:20:25;;;;;;;3.00;1.83;;;5.30;65.70;;;;;;5029930;28;20032;-81
2020/12/12 04:22:51;;;;;;;4.77;1.40;;;5.30;65.90;;;;;;5021670;28;20030;-80
2020/12/12 04:25:17;;;;;;;2.30;1.00;;;5.30;66.00;;;;;;5026423;28;20076;-81
2020/12/12 04:27:43;;;;;;;2.83;1.63;;;5.40;66.60;;;;;;5024996;28;20034;-81
2020/12/12 04:30:09;;;;;;;1.57;1.07;;;5.60;65.60;;;;;;5025183;28;20029;-81
2020/12/12 04:32:35;;;;;;;1.67;1.13;;;5.40;65.60;;;;;;5024597;28;20029;-80
2020/12/12 04:35:00;;;;;;;1.50;0.90;;;5.40;65.80;;;;;;5023343;28;20164;-81
2020/12/12 04:37:26;;;;;;;2.53;1.10;;;5.30;65.60;;;;;;5024473;28;20065;-81
2020/12/12 04:39:52;;;;;;;1.20;0.60;;;5.20;66.20;;;;;;5026256;28;20069;-80
2020/12/12 04:42:20;;;;;;;1.47;0.90;;;5.10;66.10;;;;;;5025223;28;20042;-80
2020/12/12 04:44:46;;;;;;;1.53;0.77;;;5.00;67.10;;;;;;5027293;28;20033;-80
2020/12/12 04:47:13;;;;;;;1.00;0.57;;;4.90;66.50;;;;;;5029718;28;20471;-81
2020/12/12 04:49:40;;;;;;;1.30;0.67;;;4.90;66.90;;;;;;5031259;28;20423;-80
2020/12/12 04:52:06;;;;;;;2.40;0.70;;;5.10;67.70;;;;;;5023870;28;20435;-80
2020/12/12 04:54:34;;;;;;;1.90;1.07;;;5.30;67.10;;;;;;5032389;28;20021;-80
2020/12/12 04:57:04;;;;;;;2.50;1.00;;;5.30;66.80;;;;;;5021352;28;20477;-80
2020/12/12 04:59:32;;;;;;;1.87;1.17;;;5.50;67.20;;;;;;5028589;28;20029;-80
2020/12/12 05:01:59;;;;;;;2.30;1.50;;;5.40;66.00;;;;;;5027911;28;20091;-80
2020/12/12 05:04:25;;;;;;;1.77;1.20;;;5.30;65.90;;;;;;5030285;28;20029;-80
2020/12/12 05:06:51;;;;;;;2.27;1.30;;;5.30;66.10;;;;;;5032741;28;20026;-80
2020/12/12 05:09:17;;;;;;;1.83;1.27;;;5.40;66.50;;;;;;5032219;28;20495;-81
2020/12/12 05:11:48;;;;;;;3.13;1.50;;;5.50;66.10;;;;;;5024807;28;20029;-80
2020/12/12 05:14:17;;;;;;;2.93;1.50;;;5.50;65.90;;;;;;5022162;28;20026;-80
2020/12/12 05:16:46;;;;;;;3.60;1.83;;;5.30;65.80;;;;;;5026059;28;20026;-80
2020/12/12 05:19:15;;;;;;;3.67;1.90;;;5.30;66.20;;;;;;5032293;28;20021;-81
2020/12/12 05:21:52;;;;;;;2.73;1.80;;;5.40;66.40;;;;;;5015554;28;20712;-82
2020/12/12 05:24:18;;;;;;;2.00;1.50;;;5.40;66.00;;;;;;5029146;28;20033;-81
2020/12/12 05:26:44;;;;;;;2.10;1.40;;;5.50;66.40;;;;;;5028909;28;20026;-80
2020/12/12 05:29:14;;;;;;;2.10;1.40;;;5.60;65.90;;;;;;5027927;28;20030;-80
2020/12/12 05:31:41;;;;;;;2.87;1.67;;;5.50;65.30;;;;;;5025069;28;20033;-80
2020/12/12 05:34:15;;;;;;;3.33;1.70;;;5.50;65.60;;;;;;5022833;28;20033;-80
2020/12/12 05:36:43;;;;;;;3.13;1.87;;;5.50;65.40;;;;;;5027544;28;20104;-80
2020/12/12 05:39:11;;;;;;;3.10;1.60;;;5.60;65.70;;;;;;5030577;28;20025;-80
2020/12/12 05:41:38;;;;;;;2.73;1.63;;;5.60;65.00;;;;;;5020211;28;20052;-80
2020/12/12 05:44:04;;;;;;;3.10;2.00;;;5.60;65.50;;;;;;5020621;28;20168;-81
2020/12/12 05:46:31;;;;;;;4.40;1.90;;;5.60;65.30;;;;;;5025100;28;20108;-81
2020/12/12 05:48:58;;;;;;;5.30;2.60;;;5.60;65.60;;;;;;5029477;28;20033;-81
2020/12/12 05:51:27;;;;;;;11.23;4.43;;;5.80;65.40;;;;;;5031158;28;20037;-81
2020/12/12 05:53:54;;;;;;;4.57;2.27;;;5.80;64.50;;;;;;5004371;28;20510;-81
2020/12/12 05:56:25;;;;;;;5.90;3.40;;;5.70;64.20;;;;;;5024644;28;20033;-81
2020/12/12 05:58:54;;;;;;;6.67;3.30;;;5.60;64.50;;;;;;5022158;28;20910;-81
2020/12/12 06:01:22;;;;;;;5.60;3.77;;;5.50;64.50;;;;;;5028853;28;20029;-81
2020/12/12 06:03:55;;;;;;;5.47;2.47;;;5.40;64.30;;;;;;5020967;28;20037;-81
2020/12/12 06:06:23;;;;;;;3.93;2.40;;;5.30;64.60;;;;;;5021146;28;20053;-80
2020/12/12 06:09:04;;;;;;;3.80;2.30;;;5.30;64.60;;;;;;5030795;28;20029;-80
2020/12/12 06:11:32;;;;;;;6.40;3.30;;;5.20;64.60;;;;;;5031615;28;20036;-81
2020/12/12 06:14:01;;;;;;;6.30;3.57;;;5.10;64.50;;;;;;5024357;28;20026;-81
2020/12/12 06:16:28;;;;;;;7.03;4.00;;;5.00;64.70;;;;;;5017102;28;20026;-81
2020/12/12 06:19:06;;;;;;;4.10;2.60;;;5.00;64.70;;;;;;5018952;28;20060;-81
2020/12/12 06:21:33;;;;;;;5.17;3.07;;;4.90;64.50;;;;;;5024453;28;20782;-80
2020/12/12 06:24:00;;;;;;;4.57;2.63;;;4.90;64.90;;;;;;5027246;28;20021;-81
2020/12/12 06:26:45;;;;;;;5.27;2.70;;;4.90;64.80;;;;;;5019540;28;20033;-80
2020/12/12 06:29:14;;;;;;;4.00;2.83;;;4.90;64.90;;;;;;5016656;28;20038;-80
2020/12/12 06:31:42;;;;;;;5.47;3.03;;;4.90;64.90;;;;;;5022936;28;20084;-82
2020/12/12 06:34:08;;;;;;;5.73;3.37;;;4.80;64.80;;;;;;5030339;28;20022;-81
2020/12/12 06:36:34;;;;;;;12.30;6.90;;;4.80;65.00;;;;;;5029205;28;20374;-81
2020/12/12 06:39:22;;;;;;;6.03;3.70;;;4.70;64.90;;;;;;5019844;28;20017;-80
2020/12/12 06:41:55;;;;;;;9.17;6.17;;;4.70;65.30;;;;;;5021468;28;20041;-81
2020/12/12 06:44:31;;;;;;;13.90;7.97;;;4.70;65.50;;;;;;5025725;28;20623;-81
2020/12/12 06:46:58;;;;;;;11.87;6.93;;;4.70;65.80;;;;;;5027809;28;20025;-81
2020/12/12 06:49:23;;;;;;;13.20;7.80;;;4.70;65.90;;;;;;5022496;28;20380;-81
2020/12/12 06:51:53;;;;;;;14.63;8.53;;;4.70;65.90;;;;;;5028648;28;20120;-81
2020/12/12 06:54:20;;;;;;;12.27;9.20;;;4.70;66.00;;;;;;5039325;28;20037;-81
2020/12/12 06:56:46;;;;;;;13.80;8.30;;;4.60;66.10;;;;;;5021985;28;20026;-81
2020/12/12 06:59:38;;;;;;;13.80;8.40;;;4.60;66.00;;;;;;5028385;28;20420;-81
2020/12/12 07:02:07;;;;;;;10.03;5.40;;;4.50;66.50;;;;;;5018692;28;20117;-81
2020/12/12 07:04:36;;;;;;;9.60;5.93;;;4.50;66.50;;;;;;5019665;28;20496;-81
2020/12/12 07:07:09;;;;;;;12.70;7.80;;;4.50;66.30;;;;;;5025724;28;20036;-80
2020/12/12 07:09:39;;;;;;;10.80;6.30;;;4.50;66.40;;;;;;5021306;28;20460;-81
2020/12/12 07:12:06;;;;;;;9.57;5.53;;;4.40;66.60;;;;;;5019156;28;20476;-80
2020/12/12 07:14:32;;;;;;;7.93;4.43;;;4.40;66.50;;;;;;5022467;28;20449;-80
2020/12/12 07:17:00;;;;;;;8.40;5.30;;;4.30;66.60;;;;;;5023275;28;20052;-80
2020/12/12 07:19:39;;;;;;;9.67;5.00;;;4.30;67.00;;;;;;5011023;28;20112;-80
2020/12/12 07:22:08;;;;;;;8.50;4.93;;;4.30;67.20;;;;;;5018057;28;20058;-81
2020/12/12 07:24:34;;;;;;;8.33;4.87;;;4.30;67.00;;;;;;5019542;28;20052;-81
2020/12/12 07:27:01;;;;;;;6.93;4.07;;;4.40;67.00;;;;;;5027635;28;20021;-81
2020/12/12 07:29:27;;;;;;;11.47;7.23;;;4.40;67.00;;;;;;5026570;28;20043;-81
2020/12/12 07:31:54;;;;;;;14.37;8.63;;;4.40;67.00;;;;;;5023399;28;20112;-81
2020/12/12 07:34:25;;;;;;;11.70;5.57;;;4.50;67.50;;;;;;5026303;28;20043;-81
2020/12/12 07:37:05;;;;;;;10.70;7.03;;;4.60;67.20;;;;;;5020329;28;20036;-81
2020/12/12 07:39:33;;;;;;;8.47;5.53;;;4.50;66.60;;;;;;5020623;28;20084;-81
2020/12/12 07:42:01;;;;;;;10.27;6.77;;;4.40;66.80;;;;;;5018932;28;20404;-81
2020/12/12 07:44:31;;;;;;;6.23;3.90;;;4.30;67.20;;;;;;5023059;28;20514;-81
2020/12/12 07:47:04;;;;;;;5.43;2.90;;;4.30;67.30;;;;;;5021131;28;20388;-81
2020/12/12 07:49:35;;;;;;;5.80;3.20;;;4.40;67.20;;;;;;5025347;28;20032;-80
2020/12/12 07:52:09;;;;;;;7.07;4.00;;;4.40;67.40;;;;;;5019904;28;20042;-80
2020/12/12 07:54:47;;;;;;;6.83;3.60;;;4.50;67.10;;;;;;5027923;28;20114;-80
2020/12/12 07:57:14;;;;;;;6.97;4.03;;;4.60;66.70;;;;;;5018619;28;20023;-80
2020/12/12 07:59:41;;;;;;;10.13;6.33;;;4.70;66.80;;;;;;5023307;28;20025;-80
2020/12/12 08:02:08;;;;;;;9.80;6.27;;;4.80;66.60;;;;;;5028250;28;20428;-80
2020/12/12 08:04:35;;;;;;;11.13;6.97;;;4.80;66.70;;;;;;5027039;28;20032;-80
2020/12/12 08:07:20;;;;;;;19.73;12.50;;;5.00;67.30;;;;;;5029517;28;20113;-80
2020/12/12 08:09:50;;;;;;;22.20;13.70;;;5.10;66.40;;;;;;5018578;28;20464;-80
2020/12/12 08:12:29;;;;;;;14.37;8.90;;;5.00;66.30;;;;;;5028875;28;20037;-81
2020/12/12 08:14:56;;;;;;;5.60;3.70;;;5.00;67.20;;;;;;5022383;28;20029;-80
2020/12/12 08:17:27;;;;;;;14.63;7.43;;;5.20;66.60;;;;;;5019795;28;20033;-80
2020/12/12 08:19:52;;;;;;;8.93;5.50;;;5.20;66.60;;;;;;5022845;28;20542;-80
2020/12/12 08:22:20;;;;;;;8.73;4.60;;;5.30;66.30;;;;;;5023869;28;20025;-80
2020/12/12 08:24:48;;;;;;;5.47;3.70;;;5.40;66.10;;;;;;5018222;28;20041;-80
2020/12/12 08:27:25;;;;;;;7.17;3.90;;;5.40;65.40;;;;;;5025050;28;20460;-80
2020/12/12 08:29:56;;;;;;;11.67;4.47;;;5.40;65.30;;;;;;5025574;28;20463;-80
2020/12/12 08:32:36;;;;;;;7.13;3.53;;;5.40;65.10;;;;;;5028875;28;20108;-81
2020/12/12 08:35:08;;;;;;;5.00;3.17;;;5.40;65.00;;;;;;5023778;28;20075;-80
2020/12/12 08:37:34;;;;;;;7.73;3.57;;;5.40;64.80;;;;;;5022629;28;20040;-81
2020/12/12 08:40:11;;;;;;;4.57;3.17;;;5.40;64.90;;;;;;5025735;28;20785;-80
2020/12/12 08:42:37;;;;;;;5.57;2.87;;;5.40;64.90;;;;;;5020132;28;20042;-80
2020/12/12 08:45:23;;;;;;;4.50;3.00;;;5.40;65.00;;;;;;5028508;28;20033;-80
2020/12/12 08:48:09;;;;;;;7.23;3.20;;;5.40;64.90;;;;;;5023128;28;20045;-80
2020/12/12 08:50:54;;;;;;;12.30;5.97;;;5.30;64.90;;;;;;5023214;28;20034;-80
2020/12/12 08:53:28;;;;;;;6.33;3.37;;;5.30;64.90;;;;;;5027958;28;20040;-80
2020/12/12 08:56:22;;;;;;;5.57;3.13;;;5.30;65.20;;;;;;5027322;28;20044;-80
2020/12/12 08:58:51;;;;;;;6.23;3.30;;;5.30;65.20;;;;;;5024925;28;20032;-80
2020/12/12 09:01:20;;;;;;;5.10;3.10;;;5.30;65.30;;;;;;5026337;28;20049;-80
2020/12/12 09:03:56;;;;;;;4.43;2.67;;;5.40;65.30;;;;;;5025165;28;20033;-81
2020/12/12 09:06:22;;;;;;;6.87;2.77;;;5.40;65.20;;;;;;5023078;28;20109;-80
2020/12/12 09:09:04;;;;;;;7.90;3.13;;;5.30;65.20;;;;;;5032606;28;20029;-80
2020/12/12 09:11:33;;;;;;;5.27;3.00;;;5.40;65.50;;;;;;5020151;28;20026;-80
2020/12/12 09:14:00;;;;;;;6.07;2.77;;;5.60;65.60;;;;;;5020463;28;20821;-81
2020/12/12 09:16:26;;;;;;;5.23;3.17;;;5.70;64.70;;;;;;5013451;28;20026;-82
2020/12/12 09:18:52;;;;;;;6.13;3.13;;;5.60;64.30;;;;;;5013804;28;20040;-81
2020/12/12 09:21:18;;;;;;;4.57;2.87;;;5.70;64.30;;;;;;5028971;28;20098;-82
2020/12/12 09:23:44;;;;;;;7.30;3.90;;;5.90;64.20;;;;;;5024120;28;20037;-82
2020/12/12 09:26:10;;;;;;;4.30;2.93;;;5.90;63.70;;;;;;5029494;28;20026;-82
2020/12/12 09:28:36;;;;;;;4.03;2.67;;;6.00;63.70;;;;;;5017292;28;20034;-82
2020/12/12 09:31:02;;;;;;;5.50;2.67;;;6.00;63.00;;;;;;5020633;28;20044;-82
2020/12/12 09:33:28;;;;;;;4.43;2.67;;;6.00;62.50;;;;;;5029127;28;20044;-81
2020/12/12 09:35:54;;;;;;;6.07;3.13;;;6.20;62.40;;;;;;5020039;28;20025;-82
2020/12/12 09:38:20;;;;;;;4.93;2.93;;;6.20;61.80;;;;;;5027703;28;20029;-81
2020/12/12 09:40:50;;;;;;;4.63;3.23;;;6.20;61.60;;;;;;5019116;28;20112;-81
2020/12/12 09:43:17;;;;;;;5.90;2.50;;;6.30;61.80;;;;;;5030259;28;20404;-82
2020/12/12 09:45:44;;;;;;;6.00;2.63;;;6.40;61.50;;;;;;5032640;28;20091;-82
2020/12/12 09:48:14;;;;;;;6.10;3.07;;;6.40;61.60;;;;;;5019053;28;20037;-82
2020/12/12 09:50:40;;;;;;;4.03;2.80;;;6.40;61.60;;;;;;5025408;28;20025;-81
2020/12/12 09:53:07;;;;;;;6.73;3.87;;;6.40;61.70;;;;;;5027389;28;20037;-82
2020/12/12 09:55:35;;;;;;;5.83;3.53;;;6.40;61.80;;;;;;5028912;28;20029;-82
2020/12/12 09:58:05;;;;;;;6.13;3.07;;;6.70;62.20;;;;;;5022606;28;20025;-82
2020/12/12 10:00:31;;;;;;;6.80;4.10;;;6.80;61.70;;;;;;5021431;28;20029;-82
2020/12/12 10:02:57;;;;;;;4.40;2.83;;;6.80;61.50;;;;;;5023764;28;20029;-82
2020/12/12 10:05:22;;;;;;;7.33;3.67;;;6.70;61.10;;;;;;5019925;28;20910;-82
2020/12/12 10:07:48;;;;;;;11.00;4.47;;;6.70;61.40;;;;;;5025325;28;20044;-81
2020/12/12 10:10:14;;;;;;;9.07;3.10;;;6.80;61.80;;;;;;5023733;28;20025;-82
2020/12/12 10:12:40;;;;;;;7.40;2.40;;;6.80;61.40;;;;;;5025363;28;20037;-82
2020/12/12 10:15:05;;;;;;;4.30;2.33;;;6.80;61.10;;;;;;5023746;28;20029;-84
2020/12/12 10:17:31;;;;;;;3.90;2.17;;;6.80;60.70;;;;;;5031229;28;20108;-82
2020/12/12 10:19:58;;;;;;;43.03;18.17;;;6.80;60.40;;;;;;5017263;28;20068;-82
2020/12/12 10:22:24;;;;;;;10.27;3.70;;;6.70;60.10;;;;;;5030482;28;20033;-83
2020/12/12 10:24:50;;;;;;;9.37;3.47;;;6.70;60.10;;;;;;5024950;28;20038;-83
2020/12/12 10:27:15;;;;;;;11.77;4.37;;;6.70;59.90;;;;;;5020991;28;20082;-81
2020/12/12 10:29:41;;;;;;;8.33;3.20;;;6.70;59.90;;;;;;5024263;28;20068;-83
2020/12/12 10:32:07;;;;;;;11.70;4.40;;;6.80;60.00;;;;;;5019725;28;20029;-83
2020/12/12 10:34:33;;;;;;;5.43;3.10;;;6.80;59.90;;;;;;5018425;28;20033;-83
2020/12/12 10:36:58;;;;;;;7.70;2.47;;;6.90;59.90;;;;;;5017635;28;20046;-84
2020/12/12 10:39:30;;;;;;;6.70;2.60;;;7.00;59.70;;;;;;5010669;28;20021;-84
2020/12/12 10:41:59;;;;;;;4.37;2.67;;;6.90;59.10;;;;;;5016694;28;20132;-82
2020/12/12 10:44:25;;;;;;;3.17;2.13;;;6.90;58.70;;;;;;5027346;28;20065;-81
2020/12/12 10:46:51;;;;;;;7.93;2.60;;;6.80;58.40;;;;;;5019602;28;20029;-83
2020/12/12 10:49:17;;;;;;;6.33;2.33;;;6.70;58.40;;;;;;5023939;28;20025;-83
2020/12/12 10:51:51;;;;;;;4.90;2.53;;;6.80;58.50;;;;;;5015408;28;20030;-83
2020/12/12 10:54:18;;;;;;;6.33;2.60;;;6.90;58.20;;;;;;5016035;28;20744;-83
2020/12/12 10:56:45;;;;;;;11.50;3.83;;;6.80;58.00;;;;;;5024817;28;20433;-83
2020/12/12 10:59:11;;;;;;;6.97;3.57;;;6.80;58.00;;;;;;5021222;28;20464;-83
2020/12/12 11:01:37;;;;;;;10.13;4.00;;;6.80;58.00;;;;;;5009137;28;20446;-83
2020/12/12 11:04:03;;;;;;;7.93;3.00;;;6.80;57.80;;;;;;5012579;28;20120;-83
2020/12/12 11:06:29;;;;;;;8.80;4.10;;;6.80;58.00;;;;;;5021552;28;20483;-83
2020/12/12 11:08:54;;;;;;;4.37;2.37;;;6.80;57.80;;;;;;5016416;28;20084;-83
2020/12/12 11:11:20;;;;;;;4.30;2.20;;;6.80;57.70;;;;;;5017937;28;20022;-83
2020/12/12 11:13:46;;;;;;;4.53;2.43;;;6.80;57.40;;;;;;5031693;28;20378;-83
2020/12/12 11:16:16;;;;;;;8.07;2.73;;;6.70;57.30;;;;;;5020135;28;20388;-83
2020/12/12 11:18:42;;;;;;;5.23;2.90;;;6.60;57.60;;;;;;5022870;28;20039;-81
2020/12/12 11:21:08;;;;;;;4.77;2.70;;;6.60;57.40;;;;;;5021539;28;20017;-83
2020/12/12 11:23:34;;;;;;;9.93;2.47;;;6.50;57.20;;;;;;5023492;28;20038;-81
2020/12/12 11:26:03;;;;;;;5.23;2.73;;;6.50;57.50;;;;;;5018552;28;20088;-81
2020/12/12 11:28:31;;;;;;;9.00;4.33;;;6.60;57.50;;;;;;5026940;28;20029;-82
2020/12/12 11:30:56;;;;;;;6.30;2.77;;;6.60;57.40;;;;;;5018216;28;20045;-83
2020/12/12 11:33:22;;;;;;;5.23;3.13;;;6.60;57.40;;;;;;5018931;28;20075;-83
2020/12/12 11:36:37;;;;;;;7.03;3.23;;;6.60;57.30;;;;;;5021744;28;20030;-83
2020/12/12 11:44:43;;;;;;;4.27;2.33;;;6.70;57.50;;;;;;5018778;28;20041;-82
2020/12/12 11:46:47;;;;;;;11.13;2.90;;;6.70;57.40;;;;;;5026411;28;20068;-83
2020/12/12 11:49:13;;;;;;;6.80;3.00;;;6.80;57.30;;;;;;5025587;28;20025;-83
2020/12/12 11:51:40;;;;;;;6.77;2.93;;;6.90;57.20;;;;;;5031711;28;20021;-82
2020/12/12 11:54:05;;;;;;;4.23;2.40;;;6.80;57.00;;;;;;5029792;28;20033;-82
2020/12/12 11:56:31;;;;;;;7.07;2.03;;;6.80;56.90;;;;;;5029981;28;20026;-82
2020/12/12 11:58:58;;;;;;;5.10;2.60;;;6.80;56.70;;;;;;5030685;28;20731;-82
2020/12/12 12:01:25;;;;;;;7.03;3.20;;;6.80;56.80;;;;;;5025928;28;20022;-82
2020/12/12 12:03:52;;;;;;;4.70;2.63;;;6.80;56.60;;;;;;5033104;28;20030;-82
2020/12/12 12:06:19;;;;;;;9.57;2.70;;;6.80;56.60;;;;;;5012743;28;20534;-82
2020/12/12 12:11:33;;;;;;;7.67;3.07;;;6.90;56.80;;;;;;5020796;28;20534;-81
2020/12/12 12:14:07;;;;;;;;;;;7.00;56.80;;;;;;5015926;28;20034;-81
2020/12/12 12:16:36;;;;;;;7.73;3.00;;;7.10;57.00;;;;;;5024709;28;19924;-82
2020/12/12 12:19:10;;;;;;;6.73;4.20;;;7.20;56.80;;;;;;5019791;28;20026;-82
2020/12/12 12:21:40;;;;;;;5.77;3.47;;;7.30;56.60;;;;;;5014487;28;20045;-81
2020/12/12 12:24:09;;;;;;;8.00;3.77;;;7.40;56.80;;;;;;5032990;28;20461;-81
2020/12/12 12:26:36;;;;;;;7.37;4.20;;;7.50;56.80;;;;;;5031059;28;20096;-81
2020/12/12 12:29:07;;;;;;;6.57;3.53;;;7.50;56.50;;;;;;5027494;28;20037;-81
2020/12/12 12:31:35;;;;;;;9.57;4.17;;;7.70;56.50;;;;;;5031428;28;20022;-84
2020/12/12 12:34:01;;;;;;;10.37;3.80;;;7.90;56.30;;;;;;5023633;28;20040;-83
2020/12/12 12:36:29;;;;;;;8.70;3.37;;;8.00;55.80;;;;;;5022488;28;20104;-82
2020/12/12 12:38:57;;;;;;;10.17;3.40;;;8.00;55.40;;;;;;5024136;28;20377;-82
2020/12/12 12:41:27;;;;;;;5.33;3.00;;;8.10;55.30;;;;;;5029085;28;20035;-83
2020/12/12 12:43:54;;;;;;;6.47;3.40;;;8.10;55.20;;;;;;5026586;28;20103;-83
2020/12/12 12:46:21;;;;;;;8.77;3.37;;;8.10;55.40;;;;;;5021453;28;20029;-84
2020/12/12 12:48:47;;;;;;;10.87;4.13;;;8.10;55.50;;;;;;5027148;28;20057;-82
2020/12/12 12:51:13;;;;;;;14.23;4.67;;;8.10;55.50;;;;;;5026320;28;20017;-82
2020/12/12 12:53:38;;;;;;;7.93;4.60;;;8.20;55.70;;;;;;5033819;28;20032;-81
2020/12/12 12:56:04;;;;;;;13.17;4.53;;;8.20;55.90;;;;;;5027276;28;20033;-82
2020/12/12 12:58:30;;;;;;;9.17;4.60;;;8.20;56.00;;;;;;5035060;28;20228;-81
2020/12/12 13:00:56;;;;;;;14.70;5.57;;;8.20;56.30;;;;;;5026848;28;20080;-82
2020/12/12 13:03:23;;;;;;;11.57;5.40;;;8.20;56.40;;;;;;5023226;28;20029;-82
2020/12/12 13:05:50;;;;;;;10.30;4.60;;;8.20;56.60;;;;;;5019735;28;20048;-82
2020/12/12 13:08:16;;;;;;;9.03;5.20;;;8.10;56.80;;;;;;5018165;28;20037;-81